createdAt,value
2018-09-09T00:02:02.074Z,2.07
2018-09-09T00:04:30.262Z,1.60
2018-09-09T00:06:58.555Z,2.03
2018-09-09T00:09:32.664Z,1.90
2018-09-09T00:12:00.837Z,2.30
2018-09-09T00:14:29.003Z,2.20
2018-09-09T00:16:57.148Z,2.07
2018-09-09T00:19:25.251Z,1.83
2018-09-09T00:21:53.528Z,2.00
2018-09-09T00:24:21.622Z,1.83
2018-09-09T00:26:49.742Z,2.00
2018-09-09T00:29:17.956Z,1.80
2018-09-09T00:31:46.088Z,1.70
2018-09-09T00:34:14.235Z,2.10
2018-09-09T00:36:42.358Z,1.90
2018-09-09T00:39:10.522Z,1.77
2018-09-09T00:41:38.655Z,1.70
2018-09-09T00:44:06.838Z,1.57
2018-09-09T00:46:35.307Z,1.50
2018-09-09T00:49:08.801Z,1.43
2018-09-09T00:51:42.310Z,1.90
2018-09-09T00:54:10.466Z,1.50
2018-09-09T00:56:38.616Z,1.50
2018-09-09T00:59:06.754Z,1.60
2018-09-09T01:01:35.010Z,1.70
2018-09-09T01:04:03.486Z,1.40
2018-09-09T01:06:31.596Z,1.60
2018-09-09T01:08:59.762Z,1.67
2018-09-09T01:11:27.884Z,1.20
2018-09-09T01:13:56.082Z,1.70
2018-09-09T01:16:24.190Z,1.40
2018-09-09T01:18:52.290Z,1.60
2018-09-09T01:21:20.413Z,1.73
2018-09-09T01:23:48.531Z,1.60
2018-09-09T01:26:16.638Z,1.30
2018-09-09T01:28:44.782Z,1.60
2018-09-09T01:31:12.906Z,1.50
2018-09-09T01:33:41.079Z,1.23
2018-09-09T01:36:09.318Z,1.30
2018-09-09T01:38:37.514Z,1.60
2018-09-09T01:41:05.846Z,1.40
2018-09-09T01:43:34.096Z,1.67
2018-09-09T01:46:02.344Z,1.43
2018-09-09T01:48:30.498Z,1.63
2018-09-09T01:50:58.730Z,1.50
2018-09-09T01:53:27.020Z,1.60
2018-09-09T01:55:55.401Z,1.37
2018-09-09T01:58:23.616Z,1.60
2018-09-09T02:00:51.736Z,1.50
2018-09-09T02:03:19.932Z,1.67
2018-09-09T02:05:48.158Z,1.50
2018-09-09T02:08:16.407Z,1.50
2018-09-09T02:10:44.540Z,1.60
2018-09-09T02:13:12.818Z,1.17
2018-09-09T02:15:42.695Z,1.50
2018-09-09T02:18:11.050Z,1.80
2018-09-09T02:20:39.202Z,1.60
2018-09-09T02:23:07.446Z,1.60
2018-09-09T02:25:35.619Z,1.40
2018-09-09T02:28:03.851Z,1.20
2018-09-09T02:30:32.029Z,1.20
2018-09-09T02:33:00.195Z,1.30
2018-09-09T02:35:28.352Z,1.50
2018-09-09T02:37:56.606Z,1.53
2018-09-09T02:40:24.892Z,1.30
2018-09-09T02:42:53.611Z,1.33
2018-09-09T02:45:21.983Z,1.53
2018-09-09T02:47:50.160Z,1.37
2018-09-09T02:50:18.430Z,1.30
2018-09-09T02:52:46.558Z,1.33
2018-09-09T02:55:14.933Z,1.60
2018-09-09T02:57:43.304Z,1.40
2018-09-09T03:00:11.518Z,1.10
2018-09-09T03:02:39.792Z,1.33
2018-09-09T03:05:08.043Z,1.50
2018-09-09T03:07:36.192Z,1.73
2018-09-09T03:10:04.438Z,1.53
2018-09-09T03:12:32.519Z,1.70
2018-09-09T03:15:00.638Z,2.00
2018-09-09T03:17:28.943Z,1.60
2018-09-09T03:19:57.339Z,2.10
2018-09-09T03:22:25.502Z,1.90
2018-09-09T03:24:53.675Z,1.90
2018-09-09T03:27:21.811Z,1.90
2018-09-09T03:29:49.943Z,2.10
2018-09-09T03:32:18.078Z,1.80
2018-09-09T03:34:46.189Z,1.67
2018-09-09T03:37:14.350Z,1.70
2018-09-09T03:39:42.454Z,1.87
2018-09-09T03:42:10.546Z,1.70
2018-09-09T03:44:38.678Z,1.90
2018-09-09T03:47:06.855Z,1.83
2018-09-09T03:49:35.207Z,1.70
2018-09-09T03:52:03.355Z,1.90
2018-09-09T03:54:31.562Z,1.50
2018-09-09T03:56:59.763Z,2.33
2018-09-09T03:59:27.862Z,2.33
2018-09-09T04:01:56.022Z,1.70
2018-09-09T04:04:24.167Z,1.70
2018-09-09T04:06:52.382Z,2.03
2018-09-09T04:09:20.507Z,1.60
2018-09-09T04:11:48.611Z,1.70
2018-09-09T04:14:16.838Z,1.77
2018-09-09T04:16:45.058Z,1.37
2018-09-09T04:19:13.231Z,1.73
2018-09-09T04:21:48.047Z,1.60
2018-09-09T04:24:16.210Z,2.00
2018-09-09T04:26:44.430Z,1.70
2018-09-09T04:29:12.947Z,1.93
2018-09-09T04:31:41.230Z,1.60
2018-09-09T04:34:09.523Z,1.70
2018-09-09T04:36:37.741Z,1.87
2018-09-09T04:39:08.508Z,1.90
2018-09-09T04:41:36.690Z,1.63
2018-09-09T04:44:04.862Z,2.00
2018-09-09T04:46:33.011Z,2.00
2018-09-09T04:49:01.150Z,1.50
2018-09-09T04:51:29.358Z,1.70
2018-09-09T04:53:57.520Z,1.60
2018-09-09T04:56:25.724Z,1.73
2018-09-09T04:58:53.979Z,1.77
2018-09-09T05:01:22.255Z,1.90
2018-09-09T05:03:50.648Z,2.00
2018-09-09T05:06:19.077Z,1.80
2018-09-09T05:08:47.222Z,1.50
2018-09-09T05:11:15.423Z,1.67
2018-09-09T05:13:43.544Z,1.80
2018-09-09T05:16:11.835Z,2.00
2018-09-09T05:18:40.151Z,2.00
2018-09-09T05:21:08.523Z,1.63
2018-09-09T05:23:36.749Z,2.03
2018-09-09T05:26:05.115Z,1.73
2018-09-09T05:28:33.326Z,1.57
2018-09-09T05:31:01.472Z,1.80
2018-09-09T05:33:29.571Z,2.20
2018-09-09T05:35:58.069Z,1.67
2018-09-09T05:38:26.347Z,1.63
2018-09-09T05:40:54.478Z,1.70
2018-09-09T05:43:22.627Z,1.53
2018-09-09T05:45:50.764Z,1.70
2018-09-09T05:48:19.048Z,1.60
2018-09-09T05:50:47.235Z,1.73
2018-09-09T05:53:15.322Z,1.60
2018-09-09T05:55:43.408Z,1.23
2018-09-09T05:58:11.675Z,1.80
2018-09-09T06:00:39.851Z,1.90
2018-09-09T06:03:08.152Z,1.80
2018-09-09T06:05:36.292Z,1.83
2018-09-09T06:08:04.426Z,2.20
2018-09-09T06:10:32.670Z,2.00
2018-09-09T06:13:00.886Z,1.97
2018-09-09T06:15:29.073Z,1.90
2018-09-09T06:17:57.264Z,1.90
2018-09-09T06:20:25.442Z,1.87
2018-09-09T06:22:53.610Z,2.00
2018-09-09T06:25:21.835Z,1.80
2018-09-09T06:27:49.942Z,1.70
2018-09-09T06:30:18.030Z,1.80
2018-09-09T06:32:46.379Z,1.70
2018-09-09T06:35:14.747Z,1.83
2018-09-09T06:37:42.853Z,1.83
2018-09-09T06:40:10.958Z,2.00
2018-09-09T06:42:39.074Z,2.13
2018-09-09T06:45:07.172Z,1.63
2018-09-09T06:47:35.332Z,1.93
2018-09-09T06:50:03.554Z,1.70
2018-09-09T06:52:31.743Z,1.70
2018-09-09T06:55:00.085Z,1.43
2018-09-09T06:57:28.206Z,1.70
2018-09-09T06:59:56.431Z,2.03
2018-09-09T07:02:24.596Z,1.70
2018-09-09T07:04:52.937Z,1.93
2018-09-09T07:07:21.175Z,1.77
2018-09-09T07:09:49.283Z,1.77
2018-09-09T07:12:17.583Z,1.67
2018-09-09T07:14:45.846Z,1.80
2018-09-09T07:17:13.964Z,1.77
2018-09-09T07:19:42.039Z,2.10
2018-09-09T07:22:10.135Z,1.70
2018-09-09T07:24:39.110Z,2.00
2018-09-09T07:27:07.371Z,1.63
2018-09-09T07:29:35.550Z,1.83
2018-09-09T07:32:03.679Z,1.67
2018-09-09T07:34:31.836Z,1.80
2018-09-09T07:37:00.043Z,2.00
2018-09-09T07:39:28.170Z,1.80
2018-09-09T07:41:56.394Z,1.60
2018-09-09T07:44:24.515Z,2.00
2018-09-09T07:46:52.617Z,1.90
2018-09-09T07:49:20.744Z,1.90
2018-09-09T07:51:48.858Z,1.90
2018-09-09T07:54:16.978Z,1.87
2018-09-09T07:56:45.564Z,2.13
2018-09-09T07:59:13.678Z,1.87
2018-09-09T08:01:41.823Z,2.40
2018-09-09T08:04:09.918Z,1.80
2018-09-09T08:06:38.046Z,2.00
2018-09-09T08:09:07.442Z,2.13
2018-09-09T08:11:36.645Z,1.97
2018-09-09T08:14:04.975Z,1.67
2018-09-09T08:16:33.362Z,1.90
2018-09-09T08:19:01.631Z,2.10
2018-09-09T08:21:29.852Z,2.03
2018-09-09T08:23:58.751Z,1.90
2018-09-09T08:26:27.026Z,1.77
2018-09-09T08:28:55.252Z,1.70
2018-09-09T08:31:24.881Z,1.80
2018-09-09T08:33:53.346Z,1.90
2018-09-09T08:36:22.531Z,1.60
2018-09-09T08:38:51.447Z,2.10
2018-09-09T08:41:19.562Z,2.00
2018-09-09T08:43:47.689Z,1.80
2018-09-09T08:46:15.839Z,2.40
2018-09-09T08:48:43.995Z,1.90
2018-09-09T08:51:12.191Z,1.93
2018-09-09T08:53:40.460Z,2.10
2018-09-09T08:56:08.639Z,2.30
2018-09-09T08:58:36.916Z,1.97
2018-09-09T09:01:05.174Z,2.00
2018-09-09T09:03:33.494Z,2.20
2018-09-09T09:06:01.682Z,1.60
2018-09-09T09:08:30.013Z,1.70
2018-09-09T09:10:58.199Z,1.70
2018-09-09T09:13:26.302Z,2.20
2018-09-09T09:15:54.438Z,2.40
2018-09-09T09:18:22.614Z,2.33
2018-09-09T09:20:50.963Z,1.40
2018-09-09T09:23:19.362Z,2.07
2018-09-09T09:25:53.039Z,1.50
2018-09-09T09:28:22.432Z,1.53
2018-09-09T09:30:51.288Z,1.70
2018-09-09T09:33:19.411Z,1.63
2018-09-09T09:35:49.433Z,1.97
2018-09-09T09:38:18.702Z,1.77
2018-09-09T09:40:46.895Z,1.30
2018-09-09T09:43:15.255Z,1.43
2018-09-09T09:45:43.477Z,1.20
2018-09-09T09:48:11.750Z,1.47
2018-09-09T09:50:40.000Z,1.10
2018-09-09T09:53:08.824Z,1.60
2018-09-09T09:55:38.794Z,1.23
2018-09-09T09:58:07.315Z,0.90
2018-09-09T10:00:40.965Z,1.23
2018-09-09T10:03:09.105Z,1.03
2018-09-09T10:05:37.335Z,0.90
2018-09-09T10:08:07.515Z,1.10
2018-09-09T10:10:35.975Z,1.10
2018-09-09T10:13:05.212Z,1.00
2018-09-09T10:15:35.099Z,1.00
2018-09-09T10:18:03.679Z,1.00
2018-09-09T10:20:31.899Z,1.33
2018-09-09T10:23:00.051Z,1.10
2018-09-09T10:25:28.227Z,1.13
2018-09-09T10:27:56.555Z,1.47
2018-09-09T10:30:24.663Z,1.30
2018-09-09T10:32:52.803Z,1.53
2018-09-09T10:35:20.918Z,1.83
2018-09-09T10:37:49.032Z,1.00
2018-09-09T10:40:18.107Z,1.40
2018-09-09T10:42:46.292Z,1.30
2018-09-09T10:45:14.438Z,1.23
2018-09-09T10:47:42.512Z,1.07
2018-09-09T10:50:10.663Z,1.20
2018-09-09T10:52:38.835Z,1.20
2018-09-09T10:55:06.931Z,1.37
2018-09-09T10:57:35.083Z,1.57
2018-09-09T11:00:03.742Z,1.20
2018-09-09T11:02:32.227Z,1.17
2018-09-09T11:05:00.559Z,1.50
2018-09-09T11:07:28.712Z,1.37
2018-09-09T11:09:57.083Z,1.50
2018-09-09T11:12:32.280Z,1.50
2018-09-09T11:15:01.588Z,1.07
2018-09-09T11:17:30.751Z,1.40
2018-09-09T11:19:59.192Z,1.30
2018-09-09T11:22:28.075Z,1.50
2018-09-09T11:24:56.181Z,1.27
2018-09-09T11:27:24.715Z,1.60
2018-09-09T11:29:52.900Z,1.60
2018-09-09T11:32:20.990Z,1.07
2018-09-09T11:34:49.222Z,1.53
2018-09-09T11:37:17.319Z,1.40
2018-09-09T11:39:45.565Z,1.20
2018-09-09T11:42:13.683Z,1.00
2018-09-09T11:44:41.807Z,1.00
2018-09-09T11:47:09.957Z,1.40
2018-09-09T11:49:38.080Z,1.10
2018-09-09T11:52:06.231Z,1.03
2018-09-09T11:54:34.386Z,1.47
2018-09-09T11:57:03.006Z,0.93
2018-09-09T11:59:31.130Z,1.33
2018-09-09T12:01:59.288Z,1.10
2018-09-09T12:04:27.470Z,1.13
2018-09-09T12:06:56.155Z,1.20
2018-09-09T12:09:26.273Z,1.60
2018-09-09T12:11:54.439Z,1.00
2018-09-09T12:14:28.031Z,1.57
2018-09-09T12:16:56.177Z,1.10
2018-09-09T12:19:24.372Z,1.10
2018-09-09T12:21:52.875Z,1.13
2018-09-09T12:24:21.003Z,1.23
2018-09-09T12:26:50.420Z,1.03
2018-09-09T12:29:18.513Z,1.37
2018-09-09T12:31:46.756Z,1.10
2018-09-09T12:34:15.008Z,0.93
2018-09-09T12:36:43.173Z,1.07
2018-09-09T12:39:11.328Z,1.23
2018-09-09T12:41:39.483Z,1.00
2018-09-09T12:44:12.962Z,1.10
2018-09-09T12:46:46.692Z,1.33
2018-09-09T12:49:14.831Z,1.20
2018-09-09T12:51:43.014Z,1.23
2018-09-09T12:54:11.228Z,1.10
2018-09-09T12:56:39.817Z,1.27
2018-09-09T12:59:08.739Z,0.90
2018-09-09T13:01:36.871Z,1.03
2018-09-09T13:04:05.283Z,1.00
2018-09-09T13:06:33.469Z,0.80
2018-09-09T13:09:01.631Z,1.20
2018-09-09T13:11:29.873Z,1.10
2018-09-09T13:13:58.031Z,0.70
2018-09-09T13:16:26.227Z,0.90
2018-09-09T13:18:54.707Z,0.90
2018-09-09T13:21:23.079Z,1.30
2018-09-09T13:23:51.187Z,1.37
2018-09-09T13:26:19.377Z,1.10
2018-09-09T13:28:47.461Z,1.27
2018-09-09T13:31:15.680Z,0.80
2018-09-09T13:33:43.835Z,1.00
2018-09-09T13:36:12.173Z,1.10
2018-09-09T13:38:40.630Z,1.37
2018-09-09T13:41:08.712Z,1.17
2018-09-09T13:43:36.830Z,1.23
2018-09-09T13:46:04.939Z,1.17
2018-09-09T13:48:33.129Z,1.10
2018-09-09T13:51:01.273Z,1.60
2018-09-09T13:53:29.370Z,1.10
2018-09-09T13:55:57.520Z,1.50
2018-09-09T13:58:25.699Z,1.17
2018-09-09T14:00:54.254Z,1.03
2018-09-09T14:03:22.359Z,1.60
2018-09-09T14:05:50.454Z,1.20
2018-09-09T14:08:18.575Z,1.20
2018-09-09T14:10:46.681Z,1.10
2018-09-09T14:13:15.407Z,1.30
2018-09-09T14:15:43.509Z,1.27
2018-09-09T14:18:11.686Z,1.80
2018-09-09T14:20:39.813Z,1.13
2018-09-09T14:23:07.987Z,1.27
2018-09-09T14:25:36.086Z,1.10
2018-09-09T14:28:04.175Z,0.93
2018-09-09T14:30:32.265Z,1.33
2018-09-09T14:33:00.403Z,1.23
2018-09-09T14:35:28.503Z,1.43
2018-09-09T14:37:56.604Z,1.33
2018-09-09T14:40:24.740Z,1.43
2018-09-09T14:42:52.825Z,1.40
2018-09-09T14:45:20.922Z,1.20
2018-09-09T14:47:49.024Z,1.13
2018-09-09T14:50:17.098Z,0.90
2018-09-09T14:52:45.183Z,1.10
2018-09-09T14:55:13.288Z,1.40
2018-09-09T14:57:41.401Z,1.20
2018-09-09T15:00:11.270Z,1.50
2018-09-09T15:02:39.314Z,1.17
2018-09-09T15:05:07.467Z,1.13
2018-09-09T15:07:35.563Z,1.10
2018-09-09T15:10:03.686Z,1.10
2018-09-09T15:12:31.771Z,1.07
2018-09-09T15:14:59.883Z,0.90
2018-09-09T15:17:28.007Z,1.30
2018-09-09T15:19:56.111Z,1.20
2018-09-09T15:22:24.264Z,0.93
2018-09-09T15:24:52.290Z,1.20
2018-09-09T15:27:20.420Z,0.90
2018-09-09T15:29:48.574Z,1.13
2018-09-09T15:32:16.722Z,1.13
2018-09-09T15:34:44.871Z,1.00
2018-09-09T15:37:12.978Z,1.10
2018-09-09T15:39:41.115Z,1.20
2018-09-09T15:42:09.264Z,1.23
2018-09-09T15:44:37.376Z,1.00
2018-09-09T15:47:05.495Z,0.80
2018-09-09T15:49:33.644Z,1.50
2018-09-09T15:52:01.803Z,0.93
2018-09-09T15:54:29.840Z,1.10
2018-09-09T15:56:57.923Z,1.00
2018-09-09T15:59:26.035Z,1.20
2018-09-09T16:01:54.224Z,1.00
2018-09-09T16:04:22.291Z,1.00
2018-09-09T16:06:50.383Z,0.97
2018-09-09T16:09:18.735Z,0.90
2018-09-09T16:11:47.004Z,0.90
2018-09-09T16:14:15.071Z,0.97
2018-09-09T16:16:43.203Z,0.90
2018-09-09T16:19:11.354Z,1.00
2018-09-09T16:21:39.468Z,1.27
2018-09-09T16:24:07.591Z,1.40
2018-09-09T16:26:35.718Z,1.20
2018-09-09T16:29:03.833Z,0.90
2018-09-09T16:31:31.895Z,1.07
2018-09-09T16:34:00.070Z,0.87
2018-09-09T16:36:28.234Z,1.10
2018-09-09T16:38:56.330Z,1.10
2018-09-09T16:41:24.439Z,1.00
2018-09-09T16:43:52.545Z,0.90
2018-09-09T16:46:20.674Z,0.90
2018-09-09T16:48:48.959Z,1.07
2018-09-09T16:51:17.070Z,1.03
2018-09-09T16:53:45.130Z,0.97
2018-09-09T16:56:14.472Z,1.10
2018-09-09T16:58:42.628Z,1.20
2018-09-09T17:01:10.769Z,0.70
2018-09-09T17:03:38.869Z,0.93
2018-09-09T17:06:07.126Z,1.00
2018-09-09T17:08:35.196Z,1.33
2018-09-09T17:11:03.270Z,1.00
2018-09-09T17:13:31.422Z,1.20
2018-09-09T17:15:59.514Z,0.80
2018-09-09T17:18:27.595Z,1.10
2018-09-09T17:20:55.671Z,1.10
2018-09-09T17:23:23.751Z,1.00
2018-09-09T17:25:51.895Z,1.10
2018-09-09T17:28:20.023Z,1.20
2018-09-09T17:30:48.096Z,1.47
2018-09-09T17:33:16.186Z,1.00
2018-09-09T17:35:44.266Z,0.97
2018-09-09T17:38:12.345Z,1.10
2018-09-09T17:40:40.488Z,1.10
2018-09-09T17:43:08.587Z,1.20
2018-09-09T17:45:36.679Z,1.40
2018-09-09T17:48:04.849Z,1.30
2018-09-09T17:50:32.978Z,1.00
2018-09-09T17:53:01.140Z,1.33
2018-09-09T17:55:29.151Z,1.07
2018-09-09T17:57:57.340Z,0.70
2018-09-09T18:00:25.420Z,1.03
2018-09-09T18:02:53.499Z,1.20
2018-09-09T18:05:21.572Z,1.40
2018-09-09T18:07:49.756Z,1.27
2018-09-09T18:10:17.832Z,1.10
2018-09-09T18:12:45.986Z,1.20
2018-09-09T18:15:14.059Z,1.13
2018-09-09T18:17:42.188Z,1.10
2018-09-09T18:20:10.258Z,1.20
2018-09-09T18:22:38.434Z,0.93
2018-09-09T18:25:06.564Z,1.30
2018-09-09T18:27:34.651Z,1.20
2018-09-09T18:30:02.719Z,1.07
2018-09-09T18:32:30.862Z,1.53
2018-09-09T18:34:58.991Z,1.10
2018-09-09T18:37:27.067Z,1.23
2018-09-09T18:39:55.157Z,1.57
2018-09-09T18:42:23.331Z,1.70
2018-09-09T18:44:51.479Z,1.30
2018-09-09T18:47:19.562Z,1.77
2018-09-09T18:49:47.724Z,1.37
2018-09-09T18:52:15.998Z,1.33
2018-09-09T18:54:44.254Z,1.63
2018-09-09T18:57:12.411Z,1.40
2018-09-09T18:59:40.560Z,1.47
2018-09-09T19:02:08.695Z,1.43
2018-09-09T19:04:36.838Z,1.70
2018-09-09T19:07:05.006Z,1.47
2018-09-09T19:09:33.155Z,1.50
2018-09-09T19:12:01.280Z,1.80
2018-09-09T19:14:29.426Z,1.50
2018-09-09T19:16:57.531Z,1.80
2018-09-09T19:19:25.776Z,1.60
2018-09-09T19:21:53.924Z,1.53
2018-09-09T19:24:22.116Z,1.30
2018-09-09T19:26:50.244Z,1.63
2018-09-09T19:29:18.412Z,1.57
2018-09-09T19:31:46.535Z,1.70
2018-09-09T19:34:14.650Z,1.67
2018-09-09T19:36:42.743Z,1.90
2018-09-09T19:39:11.677Z,1.70
2018-09-09T19:41:40.005Z,1.53
2018-09-09T19:44:08.516Z,1.93
2018-09-09T19:46:36.675Z,1.70
2018-09-09T19:49:05.490Z,1.53
2018-09-09T19:51:34.601Z,2.03
2018-09-09T19:54:02.759Z,1.53
2018-09-09T19:56:31.104Z,1.97
2018-09-09T19:58:59.218Z,2.10
2018-09-09T20:01:27.366Z,1.90
2018-09-09T20:03:55.450Z,2.10
2018-09-09T20:06:23.594Z,1.87
2018-09-09T20:08:51.727Z,1.50
2018-09-09T20:11:19.797Z,2.73
2018-09-09T20:13:47.945Z,1.60
2018-09-09T20:16:16.143Z,1.60
2018-09-09T20:18:44.250Z,1.30
2018-09-09T20:21:12.327Z,1.80
2018-09-09T20:23:40.440Z,1.87
2018-09-09T20:26:08.518Z,1.47
2018-09-09T20:28:36.650Z,1.70
2018-09-09T20:31:05.178Z,1.47
2018-09-09T20:33:33.343Z,1.63
2018-09-09T20:36:01.533Z,1.50
2018-09-09T20:38:29.628Z,1.93
2018-09-09T20:40:57.872Z,1.50
2018-09-09T20:43:26.143Z,1.77
2018-09-09T20:45:54.285Z,1.37
2018-09-09T20:48:22.375Z,1.67
2018-09-09T20:50:50.484Z,1.50
2018-09-09T20:53:18.602Z,1.10
2018-09-09T20:55:46.740Z,1.67
2018-09-09T20:58:14.902Z,1.13
2018-09-09T21:00:42.987Z,1.70
2018-09-09T21:03:11.062Z,1.60
2018-09-09T21:05:39.215Z,1.30
2018-09-09T21:08:07.349Z,1.50
2018-09-09T21:10:35.439Z,1.40
2018-09-09T21:13:03.574Z,1.50
2018-09-09T21:15:31.723Z,1.70
2018-09-09T21:17:59.974Z,1.47
2018-09-09T21:20:28.074Z,1.33
2018-09-09T21:22:56.178Z,1.60
2018-09-09T21:25:24.326Z,1.23
2018-09-09T21:27:52.461Z,1.40
2018-09-09T21:30:20.609Z,1.20
2018-09-09T21:32:48.697Z,1.50
2018-09-09T21:35:16.884Z,1.30
2018-09-09T21:37:45.107Z,1.60
2018-09-09T21:40:13.300Z,1.50
2018-09-09T21:42:41.396Z,1.40
2018-09-09T21:45:09.721Z,1.33
2018-09-09T21:47:37.803Z,1.43
2018-09-09T21:50:05.918Z,1.40
2018-09-09T21:52:34.031Z,1.60
2018-09-09T21:55:02.123Z,1.50
2018-09-09T21:57:30.263Z,1.23
2018-09-09T21:59:58.350Z,1.50
2018-09-09T22:02:26.497Z,1.60
2018-09-09T22:04:55.246Z,1.30
2018-09-09T22:07:23.358Z,1.20
2018-09-09T22:09:51.455Z,1.20
2018-09-09T22:12:19.535Z,1.00
2018-09-09T22:14:47.634Z,1.30
2018-09-09T22:17:15.751Z,1.10
2018-09-09T22:19:43.902Z,1.40
2018-09-09T22:22:12.056Z,0.90
2018-09-09T22:24:40.154Z,0.90
2018-09-09T22:27:08.226Z,1.27
2018-09-09T22:29:36.359Z,1.30
2018-09-09T22:32:04.478Z,1.33
2018-09-09T22:34:32.568Z,1.00
2018-09-09T22:37:00.768Z,1.63
2018-09-09T22:39:28.891Z,1.20
2018-09-09T22:41:56.986Z,1.10
2018-09-09T22:44:25.222Z,1.70
2018-09-09T22:46:53.427Z,1.30
2018-09-09T22:49:21.546Z,1.80
2018-09-09T22:51:49.803Z,1.50
2018-09-09T22:54:17.944Z,1.40
2018-09-09T22:56:46.051Z,1.30
2018-09-09T22:59:14.144Z,1.23
2018-09-09T23:01:42.378Z,1.30
2018-09-09T23:04:10.454Z,1.30
2018-09-09T23:06:38.567Z,1.30
2018-09-09T23:09:08.616Z,1.50
2018-09-09T23:11:36.770Z,1.20
2018-09-09T23:14:04.876Z,1.43
2018-09-09T23:16:33.015Z,1.27
2018-09-09T23:19:01.392Z,1.67
2018-09-09T23:21:29.552Z,1.50
2018-09-09T23:23:57.934Z,1.00
2018-09-09T23:26:26.034Z,1.33
2018-09-09T23:28:54.218Z,1.53
2018-09-09T23:31:22.323Z,1.20
2018-09-09T23:33:50.436Z,1.50
2018-09-09T23:36:18.534Z,1.40
2018-09-09T23:38:46.820Z,1.40
2018-09-09T23:41:14.901Z,1.40
2018-09-09T23:43:43.018Z,1.40
2018-09-09T23:46:11.494Z,1.47
2018-09-09T23:48:39.602Z,1.40
2018-09-09T23:51:07.722Z,1.40
2018-09-09T23:53:35.902Z,1.30
2018-09-09T23:56:04.034Z,1.40
2018-09-09T23:58:32.147Z,1.30
